sensor_id;sensor_type;location;lat;lon;timestamp;pressure;altitude;pressure_sealevel;temperature;humidity
34034;BME280;63481;52.588;22.472;2023-01-15T00:00:22;99873.95;;;2.11;95.18
34034;BME280;63481;52.588;22.472;2023-01-15T00:01:36;99874.51;;;2.13;95.16
34034;BME280;63481;52.588;22.472;2023-01-15T00:02:29;99866.91;;;2.12;95.27
34034;BME280;63481;52.588;22.472;2023-01-15T00:03:22;99862.84;;;2.14;95.05
34034;BME280;63481;52.588;22.472;2023-01-15T00:04:15;99866.45;;;2.13;95.19
34034;BME280;63481;52.588;22.472;2023-01-15T00:05:09;99861.93;;;2.12;95.07
34034;BME280;63481;52.588;22.472;2023-01-15T00:06:02;99861.05;;;2.09;95.03
34034;BME280;63481;52.588;22.472;2023-01-15T00:06:54;99858.26;;;2.11;94.65
34034;BME280;63481;52.588;22.472;2023-01-15T00:07:47;99856.70;;;2.10;95.04
34034;BME280;63481;52.588;22.472;2023-01-15T00:08:41;99857.84;;;2.11;94.86
34034;BME280;63481;52.588;22.472;2023-01-15T00:09:33;99854.14;;;2.11;94.91
34034;BME280;63481;52.588;22.472;2023-01-15T00:10:26;99848.36;;;2.08;95.04
34034;BME280;63481;52.588;22.472;2023-01-15T00:11:19;99846.41;;;2.10;94.73
34034;BME280;63481;52.588;22.472;2023-01-15T00:12:12;99845.07;;;2.11;94.74
34034;BME280;63481;52.588;22.472;2023-01-15T00:13:05;99843.03;;;2.11;94.77
34034;BME280;63481;52.588;22.472;2023-01-15T00:13:57;99843.54;;;2.12;94.63
34034;BME280;63481;52.588;22.472;2023-01-15T00:14:50;99842.64;;;2.14;94.91
34034;BME280;63481;52.588;22.472;2023-01-15T00:15:43;99839.31;;;2.16;94.98
34034;BME280;63481;52.588;22.472;2023-01-15T00:16:35;99842.86;;;2.15;94.60
34034;BME280;63481;52.588;22.472;2023-01-15T00:17:28;99839.17;;;2.15;94.57
34034;BME280;63481;52.588;22.472;2023-01-15T00:18:21;99836.34;;;2.16;94.53
34034;BME280;63481;52.588;22.472;2023-01-15T00:19:16;99835.59;;;2.19;94.78
34034;BME280;63481;52.588;22.472;2023-01-15T00:20:09;99832.00;;;2.22;94.35
34034;BME280;63481;52.588;22.472;2023-01-15T00:21:04;99830.98;;;2.21;94.35
34034;BME280;63481;52.588;22.472;2023-01-15T00:21:57;99829.96;;;2.24;94.44
34034;BME280;63481;52.588;22.472;2023-01-15T00:22:50;99823.39;;;2.27;94.59
34034;BME280;63481;52.588;22.472;2023-01-15T00:23:42;99823.40;;;2.30;94.11
34034;BME280;63481;52.588;22.472;2023-01-15T00:24:53;99824.54;;;2.29;93.92
34034;BME280;63481;52.588;22.472;2023-01-15T00:26:04;99814.15;;;2.26;93.69
34034;BME280;63481;52.588;22.472;2023-01-15T00:27:15;99812.20;;;2.28;94.25
34034;BME280;63481;52.588;22.472;2023-01-15T00:28:26;99811.98;;;2.28;93.83
34034;BME280;63481;52.588;22.472;2023-01-15T00:29:20;99804.88;;;2.29;93.67
34034;BME280;63481;52.588;22.472;2023-01-15T00:30:14;99803.13;;;2.27;93.95
34034;BME280;63481;52.588;22.472;2023-01-15T00:31:07;99801.30;;;2.30;93.89
34034;BME280;63481;52.588;22.472;2023-01-15T00:32:04;99797.23;;;2.30;93.38
34034;BME280;63481;52.588;22.472;2023-01-15T00:32:58;99791.85;;;2.28;93.87
34034;BME280;63481;52.588;22.472;2023-01-15T00:33:51;99788.56;;;2.29;93.61
34034;BME280;63481;52.588;22.472;2023-01-15T00:34:43;99781.63;;;2.30;93.55
34034;BME280;63481;52.588;22.472;2023-01-15T00:35:36;99780.61;;;2.33;93.30
34034;BME280;63481;52.588;22.472;2023-01-15T00:36:28;99773.99;;;2.35;93.66
34034;BME280;63481;52.588;22.472;2023-01-15T00:37:21;99772.21;;;2.39;93.15
34034;BME280;63481;52.588;22.472;2023-01-15T00:38:16;99768.05;;;2.39;93.15
34034;BME280;63481;52.588;22.472;2023-01-15T00:39:09;99771.14;;;2.38;93.13
34034;BME280;63481;52.588;22.472;2023-01-15T00:40:02;99768.89;;;2.37;93.17
34034;BME280;63481;52.588;22.472;2023-01-15T00:40:55;99760.95;;;2.35;93.11
34034;BME280;63481;52.588;22.472;2023-01-15T00:41:47;99760.27;;;2.34;93.32
34034;BME280;63481;52.588;22.472;2023-01-15T00:42:41;99760.31;;;2.34;93.05
34034;BME280;63481;52.588;22.472;2023-01-15T00:43:34;99758.41;;;2.34;93.16
34034;BME280;63481;52.588;22.472;2023-01-15T00:44:26;99766.44;;;2.33;93.02
34034;BME280;63481;52.588;22.472;2023-01-15T00:45:19;99759.73;;;2.33;93.13
34034;BME280;63481;52.588;22.472;2023-01-15T00:46:12;99750.35;;;2.32;93.12
34034;BME280;63481;52.588;22.472;2023-01-15T00:47:05;99752.59;;;2.32;92.78
34034;BME280;63481;52.588;22.472;2023-01-15T00:48:00;99746.58;;;2.33;92.86
34034;BME280;63481;52.588;22.472;2023-01-15T00:48:53;99745.35;;;2.30;92.72
34034;BME280;63481;52.588;22.472;2023-01-15T00:49:47;99738.97;;;2.29;92.92
34034;BME280;63481;52.588;22.472;2023-01-15T00:50:41;99738.52;;;2.26;92.65
34034;BME280;63481;52.588;22.472;2023-01-15T00:51:34;99733.45;;;2.26;92.85
34034;BME280;63481;52.588;22.472;2023-01-15T00:52:27;99740.62;;;2.28;92.95
34034;BME280;63481;52.588;22.472;2023-01-15T00:53:19;99736.20;;;2.27;93.04
34034;BME280;63481;52.588;22.472;2023-01-15T00:54:12;99733.48;;;2.24;92.86
34034;BME280;63481;52.588;22.472;2023-01-15T00:55:06;99729.73;;;2.24;92.89
34034;BME280;63481;52.588;22.472;2023-01-15T00:55:59;99723.61;;;2.23;92.64
34034;BME280;63481;52.588;22.472;2023-01-15T00:56:53;99726.62;;;2.25;92.72
34034;BME280;63481;52.588;22.472;2023-01-15T00:57:46;99721.02;;;2.24;92.65
34034;BME280;63481;52.588;22.472;2023-01-15T00:58:38;99720.00;;;2.23;93.00
34034;BME280;63481;52.588;22.472;2023-01-15T00:59:31;99717.73;;;2.23;92.67
34034;BME280;63481;52.588;22.472;2023-01-15T01:00:23;99708.13;;;2.21;92.73
34034;BME280;63481;52.588;22.472;2023-01-15T01:01:16;99705.24;;;2.21;92.76
34034;BME280;63481;52.588;22.472;2023-01-15T01:02:09;99706.11;;;2.18;92.62
34034;BME280;63481;52.588;22.472;2023-01-15T01:03:01;99705.48;;;2.16;92.60
34034;BME280;63481;52.588;22.472;2023-01-15T01:03:54;99701.59;;;2.13;92.85
34034;BME280;63481;52.588;22.472;2023-01-15T01:04:48;99706.21;;;2.11;92.89
34034;BME280;63481;52.588;22.472;2023-01-15T01:05:40;99699.66;;;2.10;93.03
34034;BME280;63481;52.588;22.472;2023-01-15T01:06:33;99695.69;;;2.11;93.01
34034;BME280;63481;52.588;22.472;2023-01-15T01:07:26;99700.88;;;2.13;93.07
34034;BME280;63481;52.588;22.472;2023-01-15T01:08:18;99696.70;;;2.14;92.99
34034;BME280;63481;52.588;22.472;2023-01-15T01:09:15;99691.44;;;2.15;92.89
34034;BME280;63481;52.588;22.472;2023-01-15T01:10:09;99695.13;;;2.14;93.01
34034;BME280;63481;52.588;22.472;2023-01-15T01:11:06;99692.10;;;2.13;92.92
34034;BME280;63481;52.588;22.472;2023-01-15T01:12:01;99687.58;;;2.12;92.75
34034;BME280;63481;52.588;22.472;2023-01-15T01:12:54;99691.88;;;2.12;92.66
34034;BME280;63481;52.588;22.472;2023-01-15T01:13:47;99688.55;;;2.12;92.75
34034;BME280;63481;52.588;22.472;2023-01-15T01:14:40;99691.41;;;2.08;92.72
34034;BME280;63481;52.588;22.472;2023-01-15T01:15:34;99686.27;;;2.08;92.80
34034;BME280;63481;52.588;22.472;2023-01-15T01:16:32;99687.08;;;2.03;92.97
34034;BME280;63481;52.588;22.472;2023-01-15T01:17:27;99680.55;;;2.04;92.82
34034;BME280;63481;52.588;22.472;2023-01-15T01:18:19;99681.06;;;2.05;92.87
34034;BME280;63481;52.588;22.472;2023-01-15T01:19:15;99678.92;;;2.04;92.98
34034;BME280;63481;52.588;22.472;2023-01-15T01:20:15;99672.31;;;2.07;92.75
34034;BME280;63481;52.588;22.472;2023-01-15T01:21:08;99673.04;;;2.07;92.78
34034;BME280;63481;52.588;22.472;2023-01-15T01:22:00;99666.70;;;2.05;92.77
34034;BME280;63481;52.588;22.472;2023-01-15T01:22:54;99667.30;;;2.03;92.70
34034;BME280;63481;52.588;22.472;2023-01-15T01:23:47;99663.28;;;2.01;92.86
34034;BME280;63481;52.588;22.472;2023-01-15T01:24:40;99662.63;;;2.01;92.95
34034;BME280;63481;52.588;22.472;2023-01-15T01:25:33;99660.98;;;2.02;92.89
34034;BME280;63481;52.588;22.472;2023-01-15T01:26:30;99661.64;;;2.05;92.84
34034;BME280;63481;52.588;22.472;2023-01-15T01:27:23;99658.41;;;2.06;92.79
34034;BME280;63481;52.588;22.472;2023-01-15T01:28:16;99655.06;;;2.06;92.76
34034;BME280;63481;52.588;22.472;2023-01-15T01:29:21;99650.16;;;2.04;92.64
34034;BME280;63481;52.588;22.472;2023-01-15T01:30:15;99651.42;;;2.06;92.80
34034;BME280;63481;52.588;22.472;2023-01-15T01:31:09;99647.17;;;2.03;92.78
34034;BME280;63481;52.588;22.472;2023-01-15T01:32:03;99646.02;;;2.02;92.57
34034;BME280;63481;52.588;22.472;2023-01-15T01:32:56;99640.73;;;2.04;92.82
34034;BME280;63481;52.588;22.472;2023-01-15T01:33:50;99641.19;;;2.04;92.71
34034;BME280;63481;52.588;22.472;2023-01-15T01:34:44;99638.39;;;2.04;92.57
34034;BME280;63481;52.588;22.472;2023-01-15T01:35:37;99640.86;;;2.04;92.60
34034;BME280;63481;52.588;22.472;2023-01-15T01:36:33;99639.63;;;2.03;92.67
34034;BME280;63481;52.588;22.472;2023-01-15T01:37:26;99624.77;;;2.02;92.62
34034;BME280;63481;52.588;22.472;2023-01-15T01:38:20;99633.40;;;2.05;92.51
34034;BME280;63481;52.588;22.472;2023-01-15T01:39:16;99633.23;;;2.05;92.46
34034;BME280;63481;52.588;22.472;2023-01-15T01:40:09;99631.80;;;2.05;92.54
34034;BME280;63481;52.588;22.472;2023-01-15T01:41:03;99629.59;;;2.05;92.40
34034;BME280;63481;52.588;22.472;2023-01-15T01:41:56;99627.88;;;2.01;92.39
34034;BME280;63481;52.588;22.472;2023-01-15T01:42:48;99627.55;;;2.01;92.44
34034;BME280;63481;52.588;22.472;2023-01-15T01:43:55;99629.69;;;1.99;92.41
34034;BME280;63481;52.588;22.472;2023-01-15T01:45:41;99629.77;;;2.00;92.81
34034;BME280;63481;52.588;22.472;2023-01-15T01:46:34;99631.89;;;2.00;92.52
34034;BME280;63481;52.588;22.472;2023-01-15T01:47:28;99632.09;;;2.03;92.72
34034;BME280;63481;52.588;22.472;2023-01-15T01:48:32;99631.73;;;2.03;92.43
34034;BME280;63481;52.588;22.472;2023-01-15T01:49:25;99628.16;;;2.05;92.42
34034;BME280;63481;52.588;22.472;2023-01-15T01:50:21;99631.71;;;2.04;92.40
34034;BME280;63481;52.588;22.472;2023-01-15T01:51:14;99634.88;;;2.01;92.63
34034;BME280;63481;52.588;22.472;2023-01-15T01:52:13;99633.61;;;2.00;92.46
34034;BME280;63481;52.588;22.472;2023-01-15T01:53:14;99636.63;;;2.03;92.31
34034;BME280;63481;52.588;22.472;2023-01-15T01:54:10;99634.75;;;2.02;92.26
34034;BME280;63481;52.588;22.472;2023-01-15T01:55:06;99629.10;;;2.03;92.27
34034;BME280;63481;52.588;22.472;2023-01-15T01:55:59;99628.11;;;2.04;92.40
34034;BME280;63481;52.588;22.472;2023-01-15T01:56:52;99628.46;;;2.02;92.08
34034;BME280;63481;52.588;22.472;2023-01-15T01:57:46;99626.86;;;2.01;92.30
34034;BME280;63481;52.588;22.472;2023-01-15T01:58:39;99627.77;;;2.02;92.27
34034;BME280;63481;52.588;22.472;2023-01-15T01:59:32;99620.64;;;2.01;92.45
34034;BME280;63481;52.588;22.472;2023-01-15T02:00:25;99617.50;;;2.03;92.33
34034;BME280;63481;52.588;22.472;2023-01-15T02:01:21;99616.02;;;2.04;92.25
34034;BME280;63481;52.588;22.472;2023-01-15T02:02:19;99611.05;;;2.01;92.29
34034;BME280;63481;52.588;22.472;2023-01-15T02:03:13;99613.27;;;2.05;91.98
34034;BME280;63481;52.588;22.472;2023-01-15T02:04:08;99613.34;;;2.06;92.20
34034;BME280;63481;52.588;22.472;2023-01-15T02:05:02;99609.23;;;2.08;92.14
34034;BME280;63481;52.588;22.472;2023-01-15T02:05:57;99608.13;;;2.04;91.95
34034;BME280;63481;52.588;22.472;2023-01-15T02:06:53;99604.55;;;2.01;92.08
34034;BME280;63481;52.588;22.472;2023-01-15T02:07:46;99603.45;;;2.01;92.24
34034;BME280;63481;52.588;22.472;2023-01-15T02:08:38;99606.98;;;2.03;92.13
34034;BME280;63481;52.588;22.472;2023-01-15T02:09:31;99600.52;;;2.03;91.83
34034;BME280;63481;52.588;22.472;2023-01-15T02:10:24;99596.33;;;2.01;92.04
34034;BME280;63481;52.588;22.472;2023-01-15T02:11:21;99596.11;;;2.00;91.97
34034;BME280;63481;52.588;22.472;2023-01-15T02:12:29;99593.66;;;2.01;91.99
34034;BME280;63481;52.588;22.472;2023-01-15T02:13:46;99594.45;;;2.02;91.99
34034;BME280;63481;52.588;22.472;2023-01-15T02:14:52;99593.80;;;2.00;91.82
34034;BME280;63481;52.588;22.472;2023-01-15T02:15:49;99592.71;;;1.99;91.94
34034;BME280;63481;52.588;22.472;2023-01-15T02:16:52;99592.06;;;1.98;92.05
34034;BME280;63481;52.588;22.472;2023-01-15T02:18:06;99585.73;;;2.01;91.79
34034;BME280;63481;52.588;22.472;2023-01-15T02:20:24;99580.30;;;1.99;91.93
34034;BME280;63481;52.588;22.472;2023-01-15T02:22:29;99582.64;;;1.97;91.77
34034;BME280;63481;52.588;22.472;2023-01-15T02:24:48;99584.81;;;1.93;91.93
34034;BME280;63481;52.588;22.472;2023-01-15T02:26:01;99581.16;;;1.91;92.05
34034;BME280;63481;52.588;22.472;2023-01-15T02:27:02;99577.04;;;1.90;92.08
34034;BME280;63481;52.588;22.472;2023-01-15T02:30:31;99573.64;;;1.89;91.94
34034;BME280;63481;52.588;22.472;2023-01-15T02:31:35;99571.27;;;1.92;91.85
34034;BME280;63481;52.588;22.472;2023-01-15T02:32:48;99569.63;;;1.89;91.86
34034;BME280;63481;52.588;22.472;2023-01-15T02:34:52;99575.29;;;1.84;91.87
34034;BME280;63481;52.588;22.472;2023-01-15T02:35:51;99567.95;;;1.82;91.96
34034;BME280;63481;52.588;22.472;2023-01-15T02:36:49;99568.94;;;1.79;91.94
34034;BME280;63481;52.588;22.472;2023-01-15T02:37:52;99568.08;;;1.79;92.06
34034;BME280;63481;52.588;22.472;2023-01-15T02:38:48;99566.13;;;1.79;91.82
34034;BME280;63481;52.588;22.472;2023-01-15T02:39:44;99563.77;;;1.82;91.91
34034;BME280;63481;52.588;22.472;2023-01-15T02:40:40;99559.31;;;1.79;91.89
34034;BME280;63481;52.588;22.472;2023-01-15T02:41:43;99555.52;;;1.77;91.80
34034;BME280;63481;52.588;22.472;2023-01-15T02:42:39;99562.01;;;1.75;91.83
34034;BME280;63481;52.588;22.472;2023-01-15T02:43:34;99551.23;;;1.73;91.84
34034;BME280;63481;52.588;22.472;2023-01-15T02:44:30;99558.94;;;1.74;92.01
34034;BME280;63481;52.588;22.472;2023-01-15T02:45:28;99560.79;;;1.75;91.69
34034;BME280;63481;52.588;22.472;2023-01-15T02:46:28;99560.39;;;1.71;91.82
34034;BME280;63481;52.588;22.472;2023-01-15T02:47:25;99548.34;;;1.72;91.89
34034;BME280;63481;52.588;22.472;2023-01-15T02:48:24;99557.11;;;1.75;91.75
34034;BME280;63481;52.588;22.472;2023-01-15T02:49:19;99554.87;;;1.75;91.89
34034;BME280;63481;52.588;22.472;2023-01-15T02:50:16;99554.48;;;1.73;91.81
34034;BME280;63481;52.588;22.472;2023-01-15T02:51:15;99560.79;;;1.74;91.71
34034;BME280;63481;52.588;22.472;2023-01-15T02:52:34;99558.30;;;1.72;91.74
34034;BME280;63481;52.588;22.472;2023-01-15T02:53:30;99552.55;;;1.69;91.85
34034;BME280;63481;52.588;22.472;2023-01-15T02:54:27;99558.04;;;1.68;91.59
34034;BME280;63481;52.588;22.472;2023-01-15T02:55:27;99553.04;;;1.69;91.54
34034;BME280;63481;52.588;22.472;2023-01-15T02:56:26;99548.17;;;1.72;91.72
34034;BME280;63481;52.588;22.472;2023-01-15T02:57:23;99553.20;;;1.71;91.83
34034;BME280;63481;52.588;22.472;2023-01-15T02:58:23;99557.77;;;1.68;91.73
34034;BME280;63481;52.588;22.472;2023-01-15T02:59:22;99550.84;;;1.70;91.75
34034;BME280;63481;52.588;22.472;2023-01-15T03:00:18;99557.52;;;1.68;91.69
34034;BME280;63481;52.588;22.472;2023-01-15T03:01:17;99558.37;;;1.65;91.55
34034;BME280;63481;52.588;22.472;2023-01-15T03:02:18;99549.63;;;1.70;91.65
34034;BME280;63481;52.588;22.472;2023-01-15T03:03:17;99555.27;;;1.73;91.41
34034;BME280;63481;52.588;22.472;2023-01-15T03:04:36;99562.34;;;1.71;91.59
34034;BME280;63481;52.588;22.472;2023-01-15T03:05:42;99560.84;;;1.70;91.49
34034;BME280;63481;52.588;22.472;2023-01-15T03:07:59;99566.13;;;1.68;91.55
34034;BME280;63481;52.588;22.472;2023-01-15T03:08:57;99571.24;;;1.71;91.54
34034;BME280;63481;52.588;22.472;2023-01-15T03:09:52;99569.48;;;1.71;91.48
34034;BME280;63481;52.588;22.472;2023-01-15T03:12:14;99565.02;;;1.64;91.58
34034;BME280;63481;52.588;22.472;2023-01-15T03:13:20;99569.73;;;1.67;91.40
34034;BME280;63481;52.588;22.472;2023-01-15T03:14:51;99572.23;;;1.65;91.47
34034;BME280;63481;52.588;22.472;2023-01-15T03:16:59;99573.08;;;1.67;91.27
34034;BME280;63481;52.588;22.472;2023-01-15T03:17:54;99566.23;;;1.67;91.48
34034;BME280;63481;52.588;22.472;2023-01-15T03:19:02;99564.98;;;1.67;91.39
34034;BME280;63481;52.588;22.472;2023-01-15T03:20:07;99564.45;;;1.68;91.50
34034;BME280;63481;52.588;22.472;2023-01-15T03:21:04;99562.83;;;1.71;91.43
34034;BME280;63481;52.588;22.472;2023-01-15T03:22:08;99563.80;;;1.68;91.27
34034;BME280;63481;52.588;22.472;2023-01-15T03:23:09;99561.46;;;1.63;91.17
34034;BME280;63481;52.588;22.472;2023-01-15T03:24:05;99558.98;;;1.61;91.45
34034;BME280;63481;52.588;22.472;2023-01-15T03:25:22;99557.26;;;1.61;91.30
34034;BME280;63481;52.588;22.472;2023-01-15T03:26:16;99564.48;;;1.66;91.55
34034;BME280;63481;52.588;22.472;2023-01-15T03:27:10;99556.66;;;1.65;91.37
34034;BME280;63481;52.588;22.472;2023-01-15T03:28:06;99559.20;;;1.64;91.34
34034;BME280;63481;52.588;22.472;2023-01-15T03:29:01;99552.71;;;1.61;91.16
34034;BME280;63481;52.588;22.472;2023-01-15T03:30:07;99553.39;;;1.60;91.25
34034;BME280;63481;52.588;22.472;2023-01-15T03:31:01;99546.90;;;1.61;91.30
34034;BME280;63481;52.588;22.472;2023-01-15T03:31:55;99546.83;;;1.60;91.40
34034;BME280;63481;52.588;22.472;2023-01-15T03:32:48;99537.77;;;1.58;91.37
34034;BME280;63481;52.588;22.472;2023-01-15T03:33:42;99543.08;;;1.56;91.33
34034;BME280;63481;52.588;22.472;2023-01-15T03:34:44;99539.45;;;1.54;91.36
34034;BME280;63481;52.588;22.472;2023-01-15T03:36:47;99530.79;;;1.53;91.32
34034;BME280;63481;52.588;22.472;2023-01-15T03:37:40;99526.98;;;1.55;91.44
34034;BME280;63481;52.588;22.472;2023-01-15T03:38:37;99520.26;;;1.51;91.54
34034;BME280;63481;52.588;22.472;2023-01-15T03:39:31;99519.38;;;1.49;91.68
34034;BME280;63481;52.588;22.472;2023-01-15T03:40:57;99505.16;;;1.52;91.65
34034;BME280;63481;52.588;22.472;2023-01-15T03:42:02;99502.48;;;1.54;91.64
34034;BME280;63481;52.588;22.472;2023-01-15T03:43:00;99500.88;;;1.55;91.62
34034;BME280;63481;52.588;22.472;2023-01-15T03:44:46;99501.74;;;1.58;91.46
34034;BME280;63481;52.588;22.472;2023-01-15T03:45:47;99496.17;;;1.58;91.53
34034;BME280;63481;52.588;22.472;2023-01-15T03:48:06;99501.79;;;1.57;91.32
34034;BME280;63481;52.588;22.472;2023-01-15T03:51:35;99496.89;;;1.56;91.53
34034;BME280;63481;52.588;22.472;2023-01-15T03:52:31;99490.10;;;1.56;91.58
34034;BME280;63481;52.588;22.472;2023-01-15T03:53:30;99490.05;;;1.54;91.49
34034;BME280;63481;52.588;22.472;2023-01-15T03:54:48;99495.59;;;1.55;91.45
34034;BME280;63481;52.588;22.472;2023-01-15T03:57:28;99494.63;;;1.52;91.66
34034;BME280;63481;52.588;22.472;2023-01-15T03:58:36;99490.22;;;1.56;91.54
34034;BME280;63481;52.588;22.472;2023-01-15T03:59:57;99501.53;;;1.54;91.60
34034;BME280;63481;52.588;22.472;2023-01-15T04:00:51;99495.02;;;1.54;91.63
34034;BME280;63481;52.588;22.472;2023-01-15T04:01:47;99497.35;;;1.56;91.40
34034;BME280;63481;52.588;22.472;2023-01-15T04:02:42;99490.23;;;1.58;91.34
34034;BME280;63481;52.588;22.472;2023-01-15T04:03:36;99486.21;;;1.57;91.45
34034;BME280;63481;52.588;22.472;2023-01-15T04:04:31;99485.79;;;1.58;91.53
34034;BME280;63481;52.588;22.472;2023-01-15T04:05:27;99481.83;;;1.60;91.36
34034;BME280;63481;52.588;22.472;2023-01-15T04:06:23;99477.86;;;1.63;91.43
34034;BME280;63481;52.588;22.472;2023-01-15T04:07:18;99479.51;;;1.62;91.35
34034;BME280;63481;52.588;22.472;2023-01-15T04:08:13;99473.56;;;1.62;91.31
34034;BME280;63481;52.588;22.472;2023-01-15T04:09:09;99477.60;;;1.65;91.43
34034;BME280;63481;52.588;22.472;2023-01-15T04:10:07;99480.05;;;1.67;91.29
34034;BME280;63481;52.588;22.472;2023-01-15T04:11:02;99486.25;;;1.69;91.19
34034;BME280;63481;52.588;22.472;2023-01-15T04:11:59;99482.45;;;1.67;91.40
34034;BME280;63481;52.588;22.472;2023-01-15T04:12:52;99466.10;;;1.68;91.28
34034;BME280;63481;52.588;22.472;2023-01-15T04:13:45;99455.80;;;1.69;91.25
34034;BME280;63481;52.588;22.472;2023-01-15T04:14:49;99456.02;;;1.72;91.13
34034;BME280;63481;52.588;22.472;2023-01-15T04:15:44;99453.27;;;1.73;91.13
34034;BME280;63481;52.588;22.472;2023-01-15T04:16:37;99455.44;;;1.73;91.15
34034;BME280;63481;52.588;22.472;2023-01-15T04:17:30;99458.52;;;1.72;90.95
34034;BME280;63481;52.588;22.472;2023-01-15T04:18:25;99453.21;;;1.70;91.12
34034;BME280;63481;52.588;22.472;2023-01-15T04:19:18;99446.42;;;1.69;90.94
34034;BME280;63481;52.588;22.472;2023-01-15T04:20:18;99441.70;;;1.65;91.05
34034;BME280;63481;52.588;22.472;2023-01-15T04:21:12;99442.45;;;1.63;91.15
34034;BME280;63481;52.588;22.472;2023-01-15T04:22:05;99447.97;;;1.64;90.93
34034;BME280;63481;52.588;22.472;2023-01-15T04:22:58;99449.40;;;1.67;90.91
34034;BME280;63481;52.588;22.472;2023-01-15T04:23:56;99449.02;;;1.64;90.89
34034;BME280;63481;52.588;22.472;2023-01-15T04:24:49;99447.84;;;1.64;90.94
34034;BME280;63481;52.588;22.472;2023-01-15T04:25:42;99454.11;;;1.64;91.02
34034;BME280;63481;52.588;22.472;2023-01-15T04:26:36;99460.97;;;1.67;91.12
34034;BME280;63481;52.588;22.472;2023-01-15T04:27:29;99454.44;;;1.66;90.85
34034;BME280;63481;52.588;22.472;2023-01-15T04:28:23;99446.59;;;1.64;90.99
34034;BME280;63481;52.588;22.472;2023-01-15T04:29:16;99441.33;;;1.64;90.88
34034;BME280;63481;52.588;22.472;2023-01-15T04:30:10;99442.74;;;1.64;91.05
34034;BME280;63481;52.588;22.472;2023-01-15T04:31:03;99445.48;;;1.64;90.92
34034;BME280;63481;52.588;22.472;2023-01-15T04:31:56;99446.17;;;1.66;90.89
34034;BME280;63481;52.588;22.472;2023-01-15T04:32:50;99448.46;;;1.64;90.90
34034;BME280;63481;52.588;22.472;2023-01-15T04:33:43;99446.58;;;1.64;90.94
34034;BME280;63481;52.588;22.472;2023-01-15T04:34:36;99442.65;;;1.68;91.11
34034;BME280;63481;52.588;22.472;2023-01-15T04:35:30;99439.68;;;1.68;90.84
34034;BME280;63481;52.588;22.472;2023-01-15T04:36:23;99434.95;;;1.68;90.73
34034;BME280;63481;52.588;22.472;2023-01-15T04:37:17;99429.19;;;1.69;90.69
34034;BME280;63481;52.588;22.472;2023-01-15T04:38:10;99425.17;;;1.72;90.80
34034;BME280;63481;52.588;22.472;2023-01-15T04:39:04;99428.13;;;1.76;90.78
34034;BME280;63481;52.588;22.472;2023-01-15T04:39:57;99425.88;;;1.77;90.42
34034;BME280;63481;52.588;22.472;2023-01-15T04:40:51;99428.04;;;1.77;90.45
34034;BME280;63481;52.588;22.472;2023-01-15T04:42:02;99417.61;;;1.75;90.73
34034;BME280;63481;52.588;22.472;2023-01-15T04:43:15;99419.58;;;1.75;90.63
34034;BME280;63481;52.588;22.472;2023-01-15T04:44:26;99417.81;;;1.74;90.44
34034;BME280;63481;52.588;22.472;2023-01-15T04:45:21;99419.32;;;1.73;90.58
34034;BME280;63481;52.588;22.472;2023-01-15T04:46:14;99419.23;;;1.73;90.64
34034;BME280;63481;52.588;22.472;2023-01-15T04:47:08;99417.66;;;1.75;90.73
34034;BME280;63481;52.588;22.472;2023-01-15T04:48:03;99416.17;;;1.77;90.62
34034;BME280;63481;52.588;22.472;2023-01-15T04:48:56;99415.30;;;1.79;90.50
34034;BME280;63481;52.588;22.472;2023-01-15T04:49:51;99413.54;;;1.84;90.48
34034;BME280;63481;52.588;22.472;2023-01-15T04:50:43;99412.08;;;1.84;90.31
34034;BME280;63481;52.588;22.472;2023-01-15T04:51:36;99402.94;;;1.86;90.22
34034;BME280;63481;52.588;22.472;2023-01-15T04:52:30;99409.75;;;1.86;90.11
34034;BME280;63481;52.588;22.472;2023-01-15T04:53:24;99406.75;;;1.87;90.06
34034;BME280;63481;52.588;22.472;2023-01-15T04:54:19;99399.27;;;1.84;90.32
34034;BME280;63481;52.588;22.472;2023-01-15T04:55:13;99396.23;;;1.85;90.16
34034;BME280;63481;52.588;22.472;2023-01-15T04:56:06;99395.08;;;1.86;90.26
34034;BME280;63481;52.588;22.472;2023-01-15T04:56:59;99391.11;;;1.85;90.02
34034;BME280;63481;52.588;22.472;2023-01-15T04:57:51;99384.79;;;1.84;90.18
34034;BME280;63481;52.588;22.472;2023-01-15T04:58:44;99383.23;;;1.87;90.04
34034;BME280;63481;52.588;22.472;2023-01-15T04:59:36;99382.48;;;1.86;90.13
34034;BME280;63481;52.588;22.472;2023-01-15T05:00:29;99381.22;;;1.86;89.98
34034;BME280;63481;52.588;22.472;2023-01-15T05:01:21;99385.58;;;1.85;89.88
34034;BME280;63481;52.588;22.472;2023-01-15T05:02:14;99386.61;;;1.86;89.90
34034;BME280;63481;52.588;22.472;2023-01-15T05:03:07;99387.20;;;1.86;89.91
34034;BME280;63481;52.588;22.472;2023-01-15T05:04:00;99386.42;;;1.87;90.01
34034;BME280;63481;52.588;22.472;2023-01-15T05:04:53;99383.02;;;1.89;89.79
34034;BME280;63481;52.588;22.472;2023-01-15T05:05:45;99377.70;;;1.89;89.89
34034;BME280;63481;52.588;22.472;2023-01-15T05:06:38;99366.31;;;1.91;89.47
34034;BME280;63481;52.588;22.472;2023-01-15T05:07:31;99376.86;;;1.93;89.67
34034;BME280;63481;52.588;22.472;2023-01-15T05:08:23;99376.07;;;1.91;89.52
34034;BME280;63481;52.588;22.472;2023-01-15T05:09:18;99369.81;;;1.89;89.59
34034;BME280;63481;52.588;22.472;2023-01-15T05:10:11;99358.16;;;1.91;89.50
34034;BME280;63481;52.588;22.472;2023-01-15T05:11:05;99360.65;;;1.93;89.17
34034;BME280;63481;52.588;22.472;2023-01-15T05:11:58;99353.73;;;1.90;89.45
34034;BME280;63481;52.588;22.472;2023-01-15T05:12:50;99347.85;;;1.90;89.31
34034;BME280;63481;52.588;22.472;2023-01-15T05:13:43;99340.15;;;1.86;89.28
34034;BME280;63481;52.588;22.472;2023-01-15T05:14:35;99346.27;;;1.88;89.35
34034;BME280;63481;52.588;22.472;2023-01-15T05:15:28;99346.48;;;1.88;89.32
34034;BME280;63481;52.588;22.472;2023-01-15T05:16:26;99353.73;;;1.89;89.28
34034;BME280;63481;52.588;22.472;2023-01-15T05:17:19;99352.23;;;1.87;89.34
34034;BME280;63481;52.588;22.472;2023-01-15T05:18:12;99355.85;;;1.87;89.14